Cheikh El Mokrani — C6WD5 — position and weather

sailwx.info

Track history (hours):
 
Tides and Currents Weather Stations Pressure Air Temp Water Temp Dewpoint Dewpoint Depression Visibility Wind Speed Wind Dir Waves Ship Positions

Cheikh El Mokrani

Last reported at 2017-Sep-25 12:59 UTC. Time now 2017-Sep-25 13:16 UTC.
Position N 36°55' E 006°57'.

Length 220 m; draft 8.1 m.

Type: Ship (hazmat cat D). MMSI: 309979000.

Date/timePositionNaut miles runAvg speedWind from/ knotsBaromVisibWave heightAir tempDewpointWater temp
2017-Sep-25 12:59N 36°55' E 006°57'1 2.9
2017-Sep-25 12:30N 36°57' E 006°58'331 9.7
2017-Sep-24 02:17N 36°36' E 013°50'413.6
2017-Sep-24 02:00N 36°35' E 013°55'713.9
2017-Sep-24 01:31N 36°33' E 014°03'714.1
2017-Sep-24 01:00N 36°31' E 014°11'714.1
2017-Sep-24 00:30N 36°30' E 014°20'714.3
2017-Sep-24 00:00N 36°28' E 014°29'714.1
2017-Sep-23 23:30N 36°27' E 014°37'714.1
2017-Sep-23 23:00N 36°25' E 014°46'814.2
2017-Sep-23 22:28N 36°23' E 014°55'417 9.4
2017-Sep-22 02:00N 37°58' E 023°24'0 0.0
2017-Sep-22 01:30N 37°58' E 023°24'0 0.0
2017-Sep-22 01:00N 37°58' E 023°24'0 0.0
2017-Sep-22 00:30N 37°58' E 023°24'0 0.0
2017-Sep-22 00:00N 37°58' E 023°24'0 0.0
2017-Sep-21 23:30N 37°58' E 023°24'0 0.0
2017-Sep-21 23:00N 37°58' E 023°24'0 0.0
2017-Sep-21 22:30N 37°58' E 023°24'0 0.0
2017-Sep-21 22:00N 37°58' E 023°24'0 0.0
2017-Sep-21 21:30N 37°58' E 023°24'0 0.0
2017-Sep-21 21:00N 37°58' E 023°24'0 0.0
2017-Sep-21 20:30N 37°58' E 023°24'0 0.0
2017-Sep-21 20:00N 37°58' E 023°24'0 0.0
2017-Sep-21 19:30N 37°58' E 023°24'0 0.0
2017-Sep-21 19:00N 37°58' E 023°24'0 0.0
2017-Sep-21 18:30N 37°58' E 023°24'0 0.0
2017-Sep-21 18:00N 37°58' E 023°24'0 0.0
2017-Sep-21 17:30N 37°58' E 023°24'0 0.0
2017-Sep-21 17:00N 37°58' E 023°24'0 0.0
2017-Sep-21 16:30N 37°58' E 023°24'0 0.0
2017-Sep-21 16:00N 37°58' E 023°24'0 0.0
2017-Sep-21 15:30N 37°58' E 023°24'0 0.0
2017-Sep-21 15:00N 37°58' E 023°24'0 0.0
2017-Sep-21 14:30N 37°58' E 023°24'0 0.0
2017-Sep-21 14:00N 37°58' E 023°24'0 0.0
2017-Sep-21 13:30N 37°58' E 023°24'0 0.0
2017-Sep-21 13:00N 37°58' E 023°24'0 0.0
2017-Sep-21 12:30N 37°58' E 023°24'0 0.0
2017-Sep-21 12:00N 37°58' E 023°24'0 0.0
2017-Sep-21 11:30N 37°58' E 023°24'0 0.0
2017-Sep-21 11:00N 37°58' E 023°24'0 0.0
2017-Sep-21 10:30N 37°58' E 023°24'0 0.0
2017-Sep-21 10:00N 37°58' E 023°24'0 0.0
2017-Sep-21 09:30N 37°58' E 023°24'0 0.0
2017-Sep-21 09:00N 37°58' E 023°24'0 0.3
2017-Sep-21 08:30N 37°57' E 023°24'1 2.1
2017-Sep-21 08:00N 37°57' E 023°23'1 2.2
2017-Sep-21 07:30N 37°56' E 023°23'1 1.2
2017-Sep-21 07:00N 37°57' E 023°23'3 5.6
2017-Sep-21 06:30N 37°54' E 023°21'4 7.1
2017-Sep-21 06:00N 37°52' E 023°24'510.9
2017-Sep-21 05:30N 37°50' E 023°31'510.0
2017-Sep-21 05:00N 37°51' E 023°37'4 8.0
2017-Sep-21 04:30N 37°48' E 023°41'510.8
2017-Sep-21 04:00N 37°43' E 023°44'612.0
2017-Sep-21 03:30N 37°37' E 023°46'713.4
2017-Sep-21 03:00N 37°31' E 023°48'41411.9
2017-Sep-19 16:05N 36°20' E 015°18'115.0
2017-Sep-19 15:59N 36°20' E 015°16'815.2
2017-Sep-19 15:26N 36°21' E 015°05'715.4
2017-Sep-19 15:00N 36°22' E 014°57'715.1
2017-Sep-19 14:30N 36°24' E 014°48'714.8
2017-Sep-19 14:00N 36°26' E 014°39'815.0
2017-Sep-19 13:30N 36°28' E 014°30'815.5
2017-Sep-19 13:00N 36°30' E 014°21'815.5
2017-Sep-19 12:30N 36°31' E 014°11'815.7
2017-Sep-19 12:00N 36°33' E 014°02'1115.7
2017-Sep-19 11:16N 36°36' E 013°48'415.6
2017-Sep-19 11:00N 36°37' E 013°43'815.4
2017-Sep-19 10:30N 36°39' E 013°33'715.1
2017-Sep-19 10:00N 36°40' E 013°24'714.9
2017-Sep-19 09:30N 36°42' E 013°15'714.7
2017-Sep-19 09:00N 36°43' E 013°06'16515.5
2017-Sep-18 22:19N 37°31' E 009°48'516.4
2017-Sep-18 22:00N 37°30' E 009°42'816.3
2017-Sep-18 21:29N 37°28' E 009°32'816.2
2017-Sep-18 21:00N 37°26' E 009°22'816.0
2017-Sep-18 20:30N 37°24' E 009°12'1115.9
2017-Sep-18 19:49N 37°21' E 008°59'  
2017-Sep-15 15:40N 42°26' E 007°48'215.8
2017-Sep-15 15:31N 42°28' E 007°51'816.0
2017-Sep-15 15:00N 42°34' E 007°58'815.8
2017-Sep-15 14:30N 42°39' E 008°06'815.7
2017-Sep-15 14:01N 42°45' E 008°13'815.4
2017-Sep-15 13:31N 42°51' E 008°20'715.0
2017-Sep-15 13:01N 42°56' E 008°27'  
Track history (hours):
 
Tides and Currents Weather Stations Pressure Air Temp Water Temp Dewpoint Dewpoint Depression Visibility Wind Speed Wind Dir Waves Ship Positions

Cheikh El Mokrani

Last reported at 2017-Sep-25 12:59 UTC. Time now 2017-Sep-25 13:16 UTC.
Position N 36°55' E 006°57'.

Length 220 m; draft 8.1 m.

Type: Ship (hazmat cat D). MMSI: 309979000.

Date/timePositionNaut miles runAvg speedWind from/ knotsBaromVisibWave heightAir tempDewpointWater temp
2017-Sep-25 12:59N 36°55' E 006°57'1 2.9
2017-Sep-25 12:30N 36°57' E 006°58'331 9.7
2017-Sep-24 02:17N 36°36' E 013°50'413.6
2017-Sep-24 02:00N 36°35' E 013°55'713.9
2017-Sep-24 01:31N 36°33' E 014°03'714.1
2017-Sep-24 01:00N 36°31' E 014°11'714.1
2017-Sep-24 00:30N 36°30' E 014°20'714.3
2017-Sep-24 00:00N 36°28' E 014°29'714.1
2017-Sep-23 23:30N 36°27' E 014°37'714.1
2017-Sep-23 23:00N 36°25' E 014°46'814.2
2017-Sep-23 22:28N 36°23' E 014°55'417 9.4
2017-Sep-22 02:00N 37°58' E 023°24'0 0.0
2017-Sep-22 01:30N 37°58' E 023°24'0 0.0
2017-Sep-22 01:00N 37°58' E 023°24'0 0.0
2017-Sep-22 00:30N 37°58' E 023°24'0 0.0
2017-Sep-22 00:00N 37°58' E 023°24'0 0.0
2017-Sep-21 23:30N 37°58' E 023°24'0 0.0
2017-Sep-21 23:00N 37°58' E 023°24'0 0.0
2017-Sep-21 22:30N 37°58' E 023°24'0 0.0
2017-Sep-21 22:00N 37°58' E 023°24'0 0.0
2017-Sep-21 21:30N 37°58' E 023°24'0 0.0
2017-Sep-21 21:00N 37°58' E 023°24'0 0.0
2017-Sep-21 20:30N 37°58' E 023°24'0 0.0
2017-Sep-21 20:00N 37°58' E 023°24'0 0.0
2017-Sep-21 19:30N 37°58' E 023°24'0 0.0
2017-Sep-21 19:00N 37°58' E 023°24'0 0.0
2017-Sep-21 18:30N 37°58' E 023°24'0 0.0
2017-Sep-21 18:00N 37°58' E 023°24'0 0.0
2017-Sep-21 17:30N 37°58' E 023°24'0 0.0
2017-Sep-21 17:00N 37°58' E 023°24'0 0.0
2017-Sep-21 16:30N 37°58' E 023°24'0 0.0
2017-Sep-21 16:00N 37°58' E 023°24'0 0.0
2017-Sep-21 15:30N 37°58' E 023°24'0 0.0
2017-Sep-21 15:00N 37°58' E 023°24'0 0.0
2017-Sep-21 14:30N 37°58' E 023°24'0 0.0
2017-Sep-21 14:00N 37°58' E 023°24'0 0.0
2017-Sep-21 13:30N 37°58' E 023°24'0 0.0
2017-Sep-21 13:00N 37°58' E 023°24'0 0.0
2017-Sep-21 12:30N 37°58' E 023°24'0 0.0
2017-Sep-21 12:00N 37°58' E 023°24'0 0.0
2017-Sep-21 11:30N 37°58' E 023°24'0 0.0
2017-Sep-21 11:00N 37°58' E 023°24'0 0.0
2017-Sep-21 10:30N 37°58' E 023°24'0 0.0
2017-Sep-21 10:00N 37°58' E 023°24'0 0.0
2017-Sep-21 09:30N 37°58' E 023°24'0 0.0
2017-Sep-21 09:00N 37°58' E 023°24'0 0.3
2017-Sep-21 08:30N 37°57' E 023°24'1 2.1
2017-Sep-21 08:00N 37°57' E 023°23'1 2.2
2017-Sep-21 07:30N 37°56' E 023°23'1 1.2
2017-Sep-21 07:00N 37°57' E 023°23'3 5.6
2017-Sep-21 06:30N 37°54' E 023°21'4 7.1
2017-Sep-21 06:00N 37°52' E 023°24'510.9
2017-Sep-21 05:30N 37°50' E 023°31'510.0
2017-Sep-21 05:00N 37°51' E 023°37'4 8.0
2017-Sep-21 04:30N 37°48' E 023°41'510.8
2017-Sep-21 04:00N 37°43' E 023°44'612.0
2017-Sep-21 03:30N 37°37' E 023°46'713.4
2017-Sep-21 03:00N 37°31' E 023°48'41411.9
2017-Sep-19 16:05N 36°20' E 015°18'115.0
2017-Sep-19 15:59N 36°20' E 015°16'815.2
2017-Sep-19 15:26N 36°21' E 015°05'715.4
2017-Sep-19 15:00N 36°22' E 014°57'715.1
2017-Sep-19 14:30N 36°24' E 014°48'714.8
2017-Sep-19 14:00N 36°26' E 014°39'815.0
2017-Sep-19 13:30N 36°28' E 014°30'815.5
2017-Sep-19 13:00N 36°30' E 014°21'815.5
2017-Sep-19 12:30N 36°31' E 014°11'815.7
2017-Sep-19 12:00N 36°33' E 014°02'1115.7
2017-Sep-19 11:16N 36°36' E 013°48'415.6
2017-Sep-19 11:00N 36°37' E 013°43'815.4
2017-Sep-19 10:30N 36°39' E 013°33'715.1
2017-Sep-19 10:00N 36°40' E 013°24'714.9
2017-Sep-19 09:30N 36°42' E 013°15'714.7
2017-Sep-19 09:00N 36°43' E 013°06'16515.5
2017-Sep-18 22:19N 37°31' E 009°48'516.4
2017-Sep-18 22:00N 37°30' E 009°42'816.3
2017-Sep-18 21:29N 37°28' E 009°32'816.2
2017-Sep-18 21:00N 37°26' E 009°22'816.0
2017-Sep-18 20:30N 37°24' E 009°12'1115.9
2017-Sep-18 19:49N 37°21' E 008°59'  
2017-Sep-15 15:40N 42°26' E 007°48'215.8
2017-Sep-15 15:31N 42°28' E 007°51'816.0
2017-Sep-15 15:00N 42°34' E 007°58'815.8
2017-Sep-15 14:30N 42°39' E 008°06'815.7
2017-Sep-15 14:01N 42°45' E 008°13'815.4
2017-Sep-15 13:31N 42°51' E 008°20'715.0
2017-Sep-15 13:01N 42°56' E 008°27'  

Dump ship's entire track history